createdAt,value
2017-07-25T19:00:11.155Z,23.3
2017-07-25T19:01:12.741Z,23.4
2017-07-25T19:03:04.388Z,23.3
2017-07-25T19:04:05.972Z,23.3
2017-07-25T19:05:57.896Z,23.3
2017-07-25T19:06:59.484Z,23.4
2017-07-25T19:08:51.139Z,23.2
2017-07-25T19:09:52.725Z,23.0
2017-07-25T19:11:46.185Z,22.9
2017-07-25T19:12:47.794Z,22.8
2017-07-25T19:14:40.036Z,22.8
2017-07-25T19:15:41.625Z,22.8
2017-07-25T19:17:33.572Z,22.7
2017-07-25T19:18:35.172Z,22.6
2017-07-25T19:20:26.811Z,22.6
2017-07-25T19:21:28.463Z,22.7
2017-07-25T19:23:20.438Z,22.6
2017-07-25T19:24:22.029Z,22.7
2017-07-25T19:26:13.668Z,22.7
2017-07-25T19:27:15.265Z,22.6
2017-07-25T19:29:07.261Z,22.7
2017-07-25T19:30:08.849Z,22.7
2017-07-25T19:32:00.728Z,22.6
2017-07-25T19:33:02.318Z,22.7
2017-07-25T19:34:54.266Z,22.7
2017-07-25T19:35:55.996Z,22.6
2017-07-25T19:37:47.677Z,22.7
2017-07-25T19:38:49.254Z,22.6
2017-07-25T19:40:41.183Z,22.7
2017-07-25T19:41:42.785Z,22.6
2017-07-25T19:43:34.431Z,22.8
2017-07-25T19:44:36.037Z,22.8
2017-07-25T19:46:27.980Z,22.9
2017-07-25T19:47:29.570Z,23.2
2017-07-25T19:49:21.223Z,24.1
2017-07-25T19:50:22.809Z,24.0
2017-07-25T19:52:14.795Z,23.9
2017-07-25T19:53:16.419Z,24.1
2017-07-25T19:55:08.067Z,24.1
2017-07-25T19:56:09.674Z,23.8
2017-07-25T19:58:01.732Z,24.0
2017-07-25T19:59:03.334Z,23.8
2017-07-25T20:00:54.981Z,23.5
2017-07-25T20:01:56.573Z,23.4
2017-07-25T20:03:48.642Z,23.6
2017-07-25T20:04:50.232Z,23.5
2017-07-25T20:06:41.885Z,23.8
2017-07-25T20:07:43.471Z,23.8
2017-07-25T20:09:35.436Z,23.6
2017-07-25T20:10:37.023Z,23.3
2017-07-25T20:12:28.726Z,23.2
2017-07-25T20:13:30.316Z,23.1
2017-07-25T20:15:22.410Z,22.9
2017-07-25T20:16:24.013Z,23.0
2017-07-25T20:18:15.651Z,23.2
2017-07-25T20:19:17.242Z,23.2
2017-07-25T20:21:09.256Z,23.3
2017-07-25T20:22:10.858Z,23.3
2017-07-25T20:24:02.507Z,23.1
2017-07-25T20:25:04.107Z,23.0
2017-07-25T20:26:56.169Z,23.0
2017-07-25T20:27:57.769Z,23.0
2017-07-25T20:29:49.426Z,23.1
2017-07-25T20:30:51.014Z,23.0
2017-07-25T20:32:42.989Z,23.2
2017-07-25T20:33:44.613Z,23.0
2017-07-25T20:35:36.254Z,23.0
2017-07-25T20:36:37.861Z,23.0
2017-07-25T20:38:29.838Z,22.9
2017-07-25T20:39:31.423Z,23.0
2017-07-25T20:41:23.063Z,23.0
2017-07-25T20:42:24.652Z,23.0
2017-07-25T20:44:16.603Z,23.0
2017-07-25T20:45:18.207Z,22.9
2017-07-25T20:47:09.843Z,23.0
2017-07-25T20:48:11.445Z,22.9
2017-07-25T20:50:03.433Z,23.0
2017-07-25T20:51:05.036Z,23.0
2017-07-25T20:52:56.688Z,22.9
2017-07-25T20:53:58.273Z,23.0
2017-07-25T20:55:50.356Z,22.9
2017-07-25T20:56:51.941Z,23.0
2017-07-25T20:58:43.581Z,23.0
2017-07-25T20:59:45.172Z,23.0
2017-07-25T21:01:37.051Z,22.9
2017-07-25T21:02:38.639Z,23.0
2017-07-25T21:04:30.290Z,23.0
2017-07-25T21:05:31.876Z,22.9
2017-07-25T21:07:23.727Z,22.9
2017-07-25T21:08:25.539Z,23.0
2017-07-25T21:10:17.177Z,22.9
2017-07-25T21:11:18.766Z,22.9
2017-07-25T21:13:10.793Z,23.0
2017-07-25T21:14:12.379Z,22.9
2017-07-25T21:16:04.041Z,23.0
2017-07-25T21:17:05.647Z,23.0
2017-07-25T21:18:57.674Z,22.9
2017-07-25T21:19:59.297Z,23.0
2017-07-25T21:21:50.945Z,22.9
2017-07-25T21:22:52.547Z,22.9
2017-07-25T21:24:45.513Z,22.9
2017-07-25T21:39:44.172Z,23.8
2017-07-25T21:40:45.774Z,23.9
2017-07-25T21:42:37.413Z,24.2
2017-07-25T21:43:39.005Z,24.2
2017-07-25T21:45:30.995Z,24.1
2017-07-25T21:46:32.580Z,24.1
2017-07-25T21:48:24.234Z,24.0
2017-07-25T21:49:25.835Z,23.9
2017-07-25T21:51:17.897Z,23.9
2017-07-25T21:52:19.481Z,23.8
2017-07-25T21:54:11.137Z,23.9
2017-07-25T21:55:12.738Z,23.8
2017-07-25T21:57:04.685Z,23.9
2017-07-25T21:58:06.286Z,23.9
2017-07-25T21:59:57.929Z,24.0
2017-07-25T22:00:59.534Z,24.0
2017-07-25T22:02:51.360Z,24.0
2017-07-25T22:03:52.961Z,24.1
2017-07-25T22:05:44.599Z,24.1
2017-07-25T22:06:46.185Z,24.1
2017-07-25T22:08:38.157Z,23.7
2017-07-25T22:09:39.746Z,23.7
2017-07-25T22:11:31.383Z,23.4
2017-07-25T22:12:32.990Z,23.3
2017-07-25T22:14:24.923Z,23.4
2017-07-25T22:15:26.528Z,23.3
2017-07-25T22:17:18.176Z,23.3
2017-07-25T22:18:19.761Z,23.4
2017-07-25T22:20:11.771Z,23.3
2017-07-25T22:21:13.357Z,23.3
2017-07-25T22:23:04.994Z,23.4
2017-07-25T22:24:07.121Z,23.4
2017-07-25T22:25:59.105Z,23.4
2017-07-25T22:27:00.933Z,23.3
2017-07-25T22:28:52.574Z,23.3
2017-07-25T22:29:54.212Z,23.3
2017-07-25T22:31:46.057Z,23.3
2017-07-25T22:32:47.647Z,23.3
2017-07-25T22:34:39.286Z,23.3
2017-07-25T22:35:40.877Z,23.2
2017-07-25T22:37:32.914Z,23.1
2017-07-25T22:38:34.500Z,23.1
2017-07-25T22:40:26.142Z,23.2
2017-07-25T22:50:06.863Z,23.3
2017-07-25T22:51:08.490Z,23.3
2017-07-25T22:53:00.165Z,23.2
2017-07-25T22:54:01.763Z,23.1
2017-07-25T22:55:53.837Z,23.0
2017-07-25T22:56:55.423Z,23.0
2017-07-25T22:58:47.062Z,23.0
2017-07-25T22:59:48.669Z,23.0
2017-07-25T23:01:40.634Z,22.9
2017-07-25T23:02:42.234Z,23.4
2017-07-25T23:04:33.867Z,23.2
2017-07-25T23:05:35.453Z,23.2
2017-07-25T23:07:27.388Z,23.1
2017-07-25T23:08:28.997Z,23.0
2017-07-25T23:10:20.690Z,22.9
2017-07-25T23:11:22.288Z,22.9
2017-07-25T23:13:14.277Z,22.9
2017-07-25T23:14:15.855Z,22.8
2017-07-25T23:16:07.499Z,22.8
2017-07-25T23:17:09.097Z,22.7
2017-07-25T23:19:01.169Z,22.8
2017-07-25T23:20:02.757Z,22.9
2017-07-25T23:21:54.393Z,22.8
2017-07-25T23:22:55.994Z,22.7
2017-07-25T23:24:47.973Z,22.7
2017-07-25T23:25:49.583Z,22.6
2017-07-25T23:27:41.214Z,22.7
2017-07-25T23:28:42.808Z,22.6
2017-07-25T23:30:34.772Z,22.7
2017-07-25T23:31:36.374Z,22.7
2017-07-25T23:33:28.023Z,22.6
2017-07-25T23:34:29.622Z,22.6
2017-07-25T23:36:21.465Z,22.6
2017-07-25T23:37:23.053Z,22.6
2017-07-25T23:39:14.701Z,22.7
2017-07-25T23:40:16.287Z,22.6
2017-07-25T23:42:08.124Z,22.6
2017-07-25T23:43:09.728Z,22.5
2017-07-25T23:45:01.391Z,22.6
2017-07-25T23:46:02.976Z,22.5
2017-07-25T23:47:54.937Z,22.5
2017-07-25T23:48:56.535Z,22.5
2017-07-25T23:50:48.181Z,22.5
2017-07-25T23:51:49.768Z,22.5
2017-07-25T23:53:41.752Z,22.5
2017-07-25T23:54:43.987Z,22.4
2017-07-25T23:56:35.621Z,22.5
2017-07-25T23:57:37.223Z,22.4
2017-07-25T23:59:29.080Z,22.4
